METAR Data
IDs: Format: Raw Decoded Include TAF

Data at: 1621 UTC 03 Jun 2020

KMKC 031554Z 22011KT 10SM CLR 29/21 A2986 RMK AO2 SLP104 T02940206
KMKC 031454Z 23015G22KT 10SM CLR 28/20 A2988 RMK AO2 SLP108 T02780200 50001
KMKC 031354Z 22012KT 10SM SCT085 27/21 A2990 RMK AO2 SLP115 T02670206
KMKC 031254Z 22012G17KT 10SM CLR 25/20 A2988 RMK AO2 SLP110 T02500200
KMKC 031154Z 22009G17KT 10SM CLR 24/20 A2987 RMK AO2 SLP107 T02390200 10244 20233 56007
KMKC 031054Z 22008KT 10SM CLR 23/19 A2988 RMK AO2 SLP108 T02330194
KMKC 030954Z 21009G17KT 10SM CLR 24/20 A2988 RMK AO2 SLP110 T02390200
KMKC 030854Z 22012KT 10SM CLR 24/20 A2990 RMK AO2 SLP115 T02390200 58012
KMKC 030754Z 21010KT 10SM CLR 24/20 A2991 RMK AO2 SLP120 T02390200
KMKC 030654Z 21011KT 10SM CLR 24/20 A2992 RMK AO2 SLP123 T02440200
KMKC 030554Z 20009KT 10SM CLR 24/19 A2993 RMK AO2 SLP126 T02440194 10300 20244 403170206 50002
KMKC 030454Z 20012KT 10SM CLR 25/19 A2993 RMK AO2 SLP127 T02500189
KMKC 030354Z 21008KT 10SM CLR 26/18 A2994 RMK AO2 SLP130 T02560183
KMKC 030254Z 20009KT 10SM CLR 27/18 A2992 RMK AO2 SLP124 T02670183 53006
KMKC 030154Z 20008KT 10SM CLR 27/18 A2991 RMK AO2 SLP119 T02720178
KMKC 030054Z 20008KT 10SM CLR 28/18 A2991 RMK AO2 SLP120 T02830178
KMKC 022354Z 20014G20KT 10SM CLR 30/18 A2991 RMK AO2 SLP119 60000 T03000178 10317 20300 58009
KMKC 022254Z AUTO 20013G21KT 10SM CLR 31/18 A2992 RMK AO2 SLP123 T03060183
KMKC 022154Z AUTO 20013G21KT 10SM CLR 31/18 A2993 RMK AO2 PK WND 23026/2124 SLP127 T03110178
KMKC 022054Z 21013KT 10SM FEW002 31/18 A2993 RMK AO2 RAB12E24 SLP127 P0000 60000 T03110183 56015
KMKC 022036Z 22012G21KT 10SM FEW002 31/18 A2994 RMK AO2 RAB12E24 P0000 T03110183
KMKC 021954Z 22012G21KT 10SM CLR 31/19 A2995 RMK AO2 SLP132 T03110189
KMKC 021854Z 19010KT 10SM CLR 31/19 A2997 RMK AO2 SLP138 T03060189
KMKC 021754Z 19012KT 10SM CLR 30/19 A2998 RMK AO2 SLP143 T03000189 10300 20211 56015
KMKC 021654Z 22013G18KT 10SM CLR 29/18 A3000 RMK AO2 SLP150 T02890183
KMKC 021554Z 22011KT 10SM CLR 27/18 A3000 RMK AO2 SLP153 T02720178
KMKC 021454Z 21012KT 10SM CLR 26/17 A3002 RMK AO2 SLP159 T02610172 50002
KMKC 021354Z 23011G18KT 10SM CLR 24/17 A3003 RMK AO2 SLP160 T02440167
KMKC 021254Z 22008KT 10SM CLR 23/16 A3003 RMK AO2 SLP160 T02330161
KMKC 021154Z 22007KT 10SM CLR 21/16 A3002 RMK AO2 SLP157 T02110161 10228 20206 51010
KMKC 021054Z 21008KT 10SM CLR 21/16 A3001 RMK AO2 SLP154 T02110156
KMKC 020954Z 22007KT 10SM CLR 22/16 A3000 RMK AO2 SLP151 T02170156
KMKC 020854Z 21008G17KT 10SM CLR 22/15 A2999 RMK AO2 SLP147 T02170150 58010
KMKC 020754Z 21013G20KT 10SM CLR 23/15 A3000 RMK AO2 SLP150 T02280150
KMKC 020654Z 20008KT 10SM CLR 22/15 A3001 RMK AO2 SLP155 T02220150
KMKC 020554Z 20010KT 10SM CLR 23/14 A3002 RMK AO2 SLP157 T02280144 10283 20228 403000200 58002
KMKC 020454Z 20011KT 10SM CLR 23/14 A3003 RMK AO2 SLP160 T02330144